createdAt,value
2023-01-21T00:01:09.444Z,13.95
2023-01-21T00:03:37.449Z,20.17
2023-01-21T00:06:06.177Z,14.85
2023-01-21T00:08:34.224Z,16.65
2023-01-21T00:11:06.424Z,18.05
2023-01-21T00:13:36.611Z,15.30
2023-01-21T00:16:05.535Z,17.42
2023-01-21T00:18:35.040Z,16.80
2023-01-21T00:21:03.125Z,16.58
2023-01-21T00:23:30.923Z,15.48
2023-01-21T00:25:59.622Z,15.95
2023-01-21T00:28:29.472Z,16.23
2023-01-21T00:31:03.344Z,16.98
2023-01-21T00:33:32.371Z,16.27
2023-01-21T00:36:01.439Z,16.48
2023-01-21T00:38:29.684Z,14.93
2023-01-21T00:41:01.759Z,16.45
2023-01-21T00:43:29.825Z,16.90
2023-01-21T00:45:57.622Z,15.60
2023-01-21T00:48:28.388Z,17.60
2023-01-21T00:51:00.421Z,17.55
2023-01-21T00:53:29.289Z,17.02
2023-01-21T00:56:00.371Z,19.33
2023-01-21T00:58:28.421Z,17.25
2023-01-21T01:01:01.792Z,15.60
2023-01-21T01:03:31.077Z,15.40
2023-01-21T01:06:03.386Z,14.13
2023-01-21T01:08:31.207Z,18.55
2023-01-21T01:10:58.958Z,17.35
2023-01-21T01:13:27.569Z,17.15
2023-01-21T01:15:57.511Z,18.40
2023-01-21T01:18:26.751Z,18.55
2023-01-21T01:20:55.975Z,18.88
2023-01-21T01:23:24.046Z,20.10
2023-01-21T01:25:59.726Z,17.42
2023-01-21T01:28:27.714Z,17.73
2023-01-21T01:30:56.045Z,18.05
2023-01-21T01:33:24.700Z,17.70
2023-01-21T01:35:52.794Z,18.45
2023-01-21T01:38:23.831Z,18.85
2023-01-21T01:40:53.264Z,18.58
2023-01-21T01:43:23.228Z,18.25
2023-01-21T01:45:51.345Z,21.10
2023-01-21T01:48:23.620Z,19.23
2023-01-21T01:50:51.856Z,17.75
2023-01-21T01:53:22.253Z,17.23
2023-01-21T01:55:50.850Z,17.60
2023-01-21T01:58:21.955Z,18.77
2023-01-21T02:00:49.967Z,16.83
2023-01-21T02:03:36.708Z,17.63
2023-01-21T02:06:05.316Z,19.42
2023-01-21T02:08:36.325Z,17.33
2023-01-21T02:11:08.180Z,18.88
2023-01-21T02:13:36.025Z,17.77
2023-01-21T02:16:19.148Z,19.13
2023-01-21T02:18:57.100Z,18.92
2023-01-21T02:21:47.031Z,18.27
2023-01-21T02:24:56.095Z,20.80
2023-01-21T02:27:41.719Z,21.33
2023-01-21T02:30:37.342Z,22.45
2023-01-21T02:33:31.783Z,24.23
2023-01-21T02:36:10.754Z,22.00
2023-01-21T02:38:47.699Z,21.17
2023-01-21T02:41:25.115Z,20.63
2023-01-21T02:44:03.397Z,18.70
2023-01-21T02:46:38.298Z,19.83
2023-01-21T02:49:13.777Z,20.88
2023-01-21T02:51:47.366Z,18.58
2023-01-21T02:54:16.890Z,20.55
2023-01-21T02:56:45.821Z,23.65
2023-01-21T02:59:14.139Z,19.85
2023-01-21T03:01:53.959Z,19.75
2023-01-21T03:04:46.360Z,22.45
2023-01-21T03:07:22.422Z,19.60
2023-01-21T03:09:50.385Z,19.98
2023-01-21T03:12:31.607Z,20.35
2023-01-21T03:15:21.206Z,21.25
2023-01-21T03:17:55.628Z,19.05
2023-01-21T03:20:28.497Z,18.10
2023-01-21T03:23:01.053Z,17.40
2023-01-21T03:25:31.398Z,19.77
2023-01-21T03:28:02.622Z,16.77
2023-01-21T03:30:32.504Z,17.77
2023-01-21T03:33:02.528Z,20.80
2023-01-21T03:35:35.356Z,16.98
2023-01-21T03:38:10.210Z,18.92
2023-01-21T03:40:41.772Z,18.27
2023-01-21T03:43:10.705Z,17.50
2023-01-21T03:45:44.233Z,19.20
2023-01-21T03:48:19.434Z,16.30
2023-01-21T03:50:53.745Z,18.65
2023-01-21T03:53:21.845Z,18.30
2023-01-21T03:55:51.731Z,17.17
2023-01-21T03:58:19.538Z,16.90
2023-01-21T04:00:49.258Z,18.15
2023-01-21T04:03:17.148Z,18.80
2023-01-21T04:05:45.003Z,18.83
2023-01-21T04:08:14.390Z,17.48
2023-01-21T04:10:42.146Z,19.67
2023-01-21T04:13:09.964Z,18.17
2023-01-21T04:15:37.754Z,20.25
2023-01-21T04:18:05.531Z,19.38
2023-01-21T04:20:33.376Z,21.08
2023-01-21T04:23:01.380Z,20.17
2023-01-21T04:25:30.602Z,20.75
2023-01-21T04:27:58.402Z,19.15
2023-01-21T04:30:26.404Z,20.88
2023-01-21T04:32:54.387Z,22.15
2023-01-21T04:35:22.117Z,22.88
2023-01-21T04:37:49.945Z,25.10
2023-01-21T04:40:18.551Z,22.35
2023-01-21T04:42:47.866Z,20.70
2023-01-21T04:45:15.725Z,18.80
2023-01-21T04:47:43.684Z,19.85
2023-01-21T04:50:13.078Z,18.17
2023-01-21T04:52:41.492Z,18.55
2023-01-21T04:55:10.909Z,22.10
2023-01-21T04:57:38.756Z,18.00
2023-01-21T05:00:10.129Z,20.17
2023-01-21T05:02:38.080Z,18.25
2023-01-21T05:05:06.721Z,19.95
2023-01-21T05:07:34.560Z,21.15
2023-01-21T05:10:02.336Z,21.73
2023-01-21T05:12:30.148Z,18.80
2023-01-21T05:14:58.715Z,21.83
2023-01-21T05:17:27.949Z,23.13
2023-01-21T05:20:01.707Z,22.75
2023-01-21T05:22:29.581Z,22.85
2023-01-21T05:24:57.499Z,22.67
2023-01-21T05:27:25.354Z,25.52
2023-01-21T05:29:53.255Z,20.30
2023-01-21T05:32:21.325Z,24.00
2023-01-21T05:34:50.487Z,21.58
2023-01-21T05:37:18.299Z,26.13
2023-01-21T05:39:46.087Z,24.13
2023-01-21T05:42:13.915Z,25.95
2023-01-21T05:44:41.714Z,24.50
2023-01-21T05:47:09.737Z,25.67
2023-01-21T05:49:37.855Z,25.05
2023-01-21T05:52:07.209Z,24.10
2023-01-21T05:54:34.983Z,23.45
2023-01-21T05:57:02.830Z,22.73
2023-01-21T05:59:30.586Z,20.75
2023-01-21T06:01:58.455Z,21.70
2023-01-21T06:04:30.520Z,21.58
2023-01-21T06:06:58.707Z,22.77
2023-01-21T06:09:27.841Z,19.55
2023-01-21T06:11:55.682Z,19.38
2023-01-21T06:14:23.430Z,19.10
2023-01-21T06:16:51.303Z,22.67
2023-01-21T06:19:19.162Z,22.65
2023-01-21T06:21:47.028Z,24.40
2023-01-21T06:24:14.832Z,22.55
2023-01-21T06:26:44.097Z,24.70
2023-01-21T06:29:11.888Z,20.27
2023-01-21T06:31:40.207Z,24.75
2023-01-21T06:34:08.001Z,23.42
2023-01-21T06:36:36.349Z,26.38
2023-01-21T06:39:04.163Z,27.05
2023-01-21T06:41:32.013Z,26.85
2023-01-21T06:44:01.166Z,27.50
2023-01-21T06:46:29.029Z,26.30
2023-01-21T06:48:56.878Z,27.30
2023-01-21T06:51:24.687Z,24.80
2023-01-21T06:53:52.573Z,27.15
2023-01-21T06:56:20.558Z,28.73
2023-01-21T06:58:48.299Z,27.40
2023-01-21T07:01:17.529Z,24.23
2023-01-21T07:03:45.384Z,26.52
2023-01-21T07:06:13.206Z,29.83
2023-01-21T07:08:41.049Z,27.90
2023-01-21T07:11:08.915Z,24.08
2023-01-21T07:13:36.815Z,26.95
2023-01-21T07:16:06.919Z,25.83
2023-01-21T07:18:36.471Z,26.45
2023-01-21T07:21:04.492Z,23.83
2023-01-21T07:23:32.310Z,25.30
2023-01-21T07:26:00.230Z,23.73
2023-01-21T07:28:28.056Z,26.25
2023-01-21T07:30:55.895Z,26.73
2023-01-21T07:33:23.768Z,25.08
2023-01-21T07:35:52.922Z,25.08
2023-01-21T07:38:20.807Z,25.02
2023-01-21T07:40:48.985Z,25.02
2023-01-21T07:43:17.635Z,24.52
2023-01-21T07:45:46.928Z,26.52
2023-01-21T07:48:14.809Z,25.85
2023-01-21T07:50:42.596Z,31.67
2023-01-21T07:53:13.166Z,28.10
2023-01-21T07:55:41.162Z,31.60
2023-01-21T07:58:10.712Z,28.73
2023-01-21T08:00:38.589Z,29.60
2023-01-21T08:03:06.460Z,30.33
2023-01-21T08:05:34.453Z,30.10
2023-01-21T08:08:02.287Z,26.73
2023-01-21T08:10:31.509Z,27.27
2023-01-21T08:13:01.023Z,27.92
2023-01-21T08:15:28.948Z,28.52
2023-01-21T08:17:56.994Z,31.95
2023-01-21T08:20:24.859Z,29.33
2023-01-21T08:22:52.710Z,27.55
2023-01-21T08:25:20.589Z,28.58
2023-01-21T08:27:49.813Z,31.77
2023-01-21T08:30:18.417Z,30.48
2023-01-21T08:32:46.737Z,30.00
2023-01-21T08:35:14.639Z,28.90
2023-01-21T08:37:42.473Z,27.58
2023-01-21T08:40:11.521Z,29.15
2023-01-21T08:42:39.560Z,30.45
2023-01-21T08:45:10.296Z,30.10
2023-01-21T08:47:38.131Z,31.17
2023-01-21T08:50:07.647Z,29.90
2023-01-21T08:52:35.482Z,32.75
2023-01-21T08:55:03.307Z,28.25
2023-01-21T08:57:31.085Z,30.45
2023-01-21T08:59:58.905Z,28.02
2023-01-21T09:02:28.315Z,28.15
2023-01-21T09:04:56.139Z,28.08
2023-01-21T09:07:23.930Z,29.33
2023-01-21T09:09:51.921Z,28.33
2023-01-21T09:12:19.855Z,25.35
2023-01-21T09:14:47.691Z,26.35
2023-01-21T09:17:15.526Z,25.35
2023-01-21T09:19:44.727Z,27.85
2023-01-21T09:22:13.811Z,25.88
2023-01-21T09:24:41.755Z,25.73
2023-01-21T09:27:10.250Z,26.58
2023-01-21T09:29:38.094Z,24.20
2023-01-21T09:32:06.217Z,23.58
2023-01-21T09:34:35.685Z,26.73
2023-01-21T09:37:05.381Z,25.67
2023-01-21T09:39:33.244Z,27.15
2023-01-21T09:42:01.050Z,25.40
2023-01-21T09:44:34.680Z,25.90
2023-01-21T09:47:07.250Z,25.75
2023-01-21T09:49:38.807Z,24.00
2023-01-21T09:52:20.269Z,22.40
2023-01-21T09:54:48.334Z,24.83
2023-01-21T09:57:50.502Z,24.50
2023-01-21T10:00:32.290Z,25.40
2023-01-21T10:03:10.093Z,24.10
2023-01-21T10:05:55.514Z,22.27
2023-01-21T10:08:33.691Z,26.00
2023-01-21T10:11:15.464Z,23.25
2023-01-21T10:13:58.741Z,24.45
2023-01-21T10:18:59.905Z,23.90
2023-01-21T10:21:34.099Z,21.80
2023-01-21T10:24:08.823Z,27.55
2023-01-21T10:26:36.809Z,21.92
2023-01-21T10:29:05.637Z,23.25
2023-01-21T10:31:41.526Z,22.60
2023-01-21T10:34:15.027Z,23.83
2023-01-21T10:36:57.381Z,25.20
2023-01-21T10:39:40.302Z,22.10
2023-01-21T10:42:20.744Z,23.55
2023-01-21T10:44:57.954Z,25.65
2023-01-21T10:47:33.939Z,21.83
2023-01-21T10:50:15.283Z,22.83
2023-01-21T10:52:50.449Z,25.75
2023-01-21T10:55:30.826Z,22.80
2023-01-21T10:58:03.633Z,22.50
2023-01-21T11:00:35.153Z,20.20
2023-01-21T11:03:09.345Z,23.70
2023-01-21T11:05:39.336Z,22.67
2023-01-21T11:08:07.795Z,23.88
2023-01-21T11:10:37.059Z,23.48
2023-01-21T11:13:05.092Z,23.92
2023-01-21T11:15:34.554Z,24.08
2023-01-21T11:18:02.361Z,22.67
2023-01-21T11:20:36.774Z,25.05
2023-01-21T11:23:05.801Z,23.00
2023-01-21T11:25:38.854Z,23.73
2023-01-21T11:28:06.949Z,24.23
2023-01-21T11:30:58.539Z,22.35
2023-01-21T11:33:28.281Z,25.88
2023-01-21T11:35:58.359Z,25.88
2023-01-21T11:38:33.094Z,24.52
2023-01-21T11:41:04.588Z,25.38
2023-01-21T11:43:37.670Z,21.88
2023-01-21T11:48:48.219Z,23.52
2023-01-21T11:51:16.232Z,21.70
2023-01-21T11:53:44.158Z,24.08
2023-01-21T11:56:14.501Z,23.27
2023-01-21T11:58:43.491Z,23.52
2023-01-21T12:01:21.664Z,21.25
2023-01-21T12:03:53.670Z,21.92
2023-01-21T12:06:23.905Z,23.17
2023-01-21T12:08:55.503Z,22.65
2023-01-21T12:11:28.916Z,19.88
2023-01-21T12:14:04.478Z,23.67
2023-01-21T12:16:35.393Z,19.52
2023-01-21T12:19:34.545Z,20.75
2023-01-21T12:22:16.714Z,18.73
2023-01-21T12:25:08.398Z,16.60
2023-01-21T12:27:52.894Z,18.15
2023-01-21T12:30:32.545Z,20.95
2023-01-21T12:33:04.861Z,22.63
2023-01-21T12:35:40.448Z,20.10
2023-01-21T12:38:14.904Z,17.33
2023-01-21T12:40:51.217Z,17.10
2023-01-21T12:43:23.935Z,18.13
2023-01-21T12:45:56.345Z,22.92
2023-01-21T12:48:32.587Z,20.65
2023-01-21T12:51:05.703Z,21.05
2023-01-21T12:53:38.723Z,20.33
2023-01-21T12:58:44.037Z,22.70
2023-01-21T13:01:17.121Z,19.42
2023-01-21T13:03:56.949Z,21.10
2023-01-21T13:06:47.128Z,21.30
2023-01-21T13:09:26.125Z,21.63
2023-01-21T13:11:59.186Z,22.83
2023-01-21T13:17:03.475Z,18.23
2023-01-21T13:19:31.324Z,19.05
2023-01-21T13:22:05.704Z,18.75
2023-01-21T13:24:35.260Z,19.98
2023-01-21T13:27:13.913Z,24.15
2023-01-21T13:29:50.822Z,20.50
2023-01-21T13:32:32.261Z,28.33
2023-01-21T13:35:19.721Z,22.40
2023-01-21T13:37:54.326Z,21.90
2023-01-21T13:40:34.002Z,23.08
2023-01-21T13:43:11.460Z,26.83
2023-01-21T13:45:54.453Z,23.05
2023-01-21T13:48:43.710Z,20.70
2023-01-21T13:51:27.534Z,22.52
2023-01-21T13:54:12.308Z,22.73
2023-01-21T13:56:57.473Z,24.08
2023-01-21T13:59:31.142Z,21.95
2023-01-21T14:02:06.099Z,23.55
2023-01-21T14:04:40.137Z,21.98
2023-01-21T14:07:14.900Z,22.70
2023-01-21T14:09:47.899Z,24.58
2023-01-21T14:15:13.319Z,21.40
2023-01-21T14:18:16.678Z,22.42
2023-01-21T14:21:08.012Z,22.08
2023-01-21T14:23:48.915Z,23.23
2023-01-21T14:26:38.627Z,25.48
2023-01-21T14:29:14.968Z,22.80
2023-01-21T14:31:48.242Z,21.80
2023-01-21T14:34:23.184Z,20.00
2023-01-21T14:37:03.425Z,19.13
2023-01-21T14:39:39.010Z,21.90
2023-01-21T14:42:12.653Z,17.98
2023-01-21T14:44:43.554Z,20.60
2023-01-21T14:47:14.652Z,18.02
2023-01-21T14:49:46.567Z,19.02
2023-01-21T14:52:16.470Z,20.52
2023-01-21T14:54:46.059Z,19.45
2023-01-21T14:57:25.576Z,21.10
2023-01-21T14:59:55.870Z,21.55
2023-01-21T15:02:30.639Z,20.45
2023-01-21T15:05:01.670Z,20.30
2023-01-21T15:07:32.686Z,23.65
2023-01-21T15:10:03.740Z,20.35
2023-01-21T15:12:33.613Z,20.40
2023-01-21T15:15:02.972Z,21.80
2023-01-21T15:18:03.848Z,19.77
2023-01-21T15:20:45.963Z,21.40
2023-01-21T15:23:28.337Z,22.55
2023-01-21T15:26:30.515Z,17.57
2023-01-21T15:29:33.513Z,22.42
2023-01-21T15:32:21.958Z,20.83
2023-01-21T15:34:53.493Z,21.30
2023-01-21T15:37:24.573Z,19.38
2023-01-21T15:39:57.657Z,22.83
2023-01-21T15:45:06.834Z,22.05
2023-01-21T15:48:02.943Z,21.92
2023-01-21T15:50:36.086Z,25.08
2023-01-21T15:56:03.253Z,17.95
2023-01-21T15:58:43.473Z,18.52
2023-01-21T16:01:19.281Z,17.65
2023-01-21T16:04:03.295Z,15.13
2023-01-21T16:06:41.992Z,16.30
2023-01-21T16:09:18.253Z,16.65
2023-01-21T16:12:04.958Z,19.52
2023-01-21T16:14:44.200Z,20.17
2023-01-21T16:17:19.315Z,14.75
2023-01-21T16:19:52.860Z,15.85
2023-01-21T16:22:26.254Z,15.57
2023-01-21T16:25:00.124Z,16.50
2023-01-21T16:27:31.063Z,15.57
2023-01-21T16:29:59.944Z,14.93
2023-01-21T16:32:28.093Z,14.27
2023-01-21T16:35:02.464Z,16.35
2023-01-21T16:37:36.502Z,14.27
2023-01-21T16:40:30.080Z,13.48
2023-01-21T16:43:21.884Z,15.52
2023-01-21T16:45:51.958Z,13.95
2023-01-21T16:48:25.819Z,13.55
2023-01-21T16:50:54.676Z,14.57
2023-01-21T16:53:27.673Z,11.75
2023-01-21T16:56:02.110Z,13.13
2023-01-21T16:58:32.936Z,12.93
2023-01-21T17:01:12.892Z,12.95
2023-01-21T17:03:46.152Z,12.35
2023-01-21T17:06:32.128Z,14.15
2023-01-21T17:09:29.782Z,11.95
2023-01-21T17:12:08.723Z,13.18
2023-01-21T17:14:38.391Z,14.27
2023-01-21T17:17:11.764Z,12.00
2023-01-21T17:19:45.595Z,10.93
2023-01-21T17:22:21.042Z,14.10
2023-01-21T17:25:00.985Z,11.55
2023-01-21T17:27:33.411Z,10.80
2023-01-21T17:30:32.085Z,10.35
2023-01-21T17:33:15.151Z,11.88
2023-01-21T17:36:09.448Z,10.88
2023-01-21T17:38:44.422Z,9.88
2023-01-21T17:41:25.757Z,11.25
2023-01-21T17:44:05.399Z,10.13
2023-01-21T17:46:38.234Z,12.30
2023-01-21T17:49:15.137Z,11.18
2023-01-21T17:51:46.994Z,9.25
2023-01-21T17:54:21.468Z,12.60
2023-01-21T17:56:51.280Z,10.73
2023-01-21T17:59:31.531Z,9.98
2023-01-21T18:01:59.496Z,11.55
2023-01-21T18:04:27.544Z,10.38
2023-01-21T18:06:57.210Z,11.35
2023-01-21T18:09:26.376Z,12.52
2023-01-21T18:11:55.890Z,12.82
2023-01-21T18:14:25.653Z,12.07
2023-01-21T18:16:55.513Z,13.05
2023-01-21T18:19:29.576Z,13.13
2023-01-21T18:21:57.735Z,15.15
2023-01-21T18:24:26.403Z,15.38
2023-01-21T18:26:55.768Z,14.80
2023-01-21T18:29:23.790Z,14.77
2023-01-21T18:31:52.299Z,13.10
2023-01-21T18:34:21.528Z,14.07
2023-01-21T18:36:50.391Z,15.40
2023-01-21T18:39:19.896Z,13.88
2023-01-21T18:41:48.268Z,14.50
2023-01-21T18:44:16.265Z,14.30
2023-01-21T18:46:44.265Z,13.13
2023-01-21T18:49:17.187Z,14.57
2023-01-21T18:54:16.267Z,13.13
2023-01-21T18:56:45.237Z,13.57
2023-01-21T18:59:17.989Z,13.52
2023-01-21T19:01:46.987Z,15.18
2023-01-21T19:04:18.222Z,14.18
2023-01-21T19:06:50.325Z,12.82
2023-01-21T19:09:23.141Z,15.27
2023-01-21T19:11:52.051Z,14.45
2023-01-21T19:14:19.862Z,13.65
2023-01-21T19:16:47.963Z,14.13
2023-01-21T19:19:19.041Z,14.75
2023-01-21T19:21:48.877Z,14.15
2023-01-21T19:24:16.877Z,13.93
2023-01-21T19:26:44.863Z,14.30
2023-01-21T19:29:16.295Z,13.05
2023-01-21T19:31:44.296Z,14.10
2023-01-21T19:34:12.258Z,17.10
2023-01-21T19:36:41.004Z,15.40
2023-01-21T19:39:17.692Z,15.27
2023-01-21T19:41:45.518Z,14.88
2023-01-21T19:44:13.346Z,15.10
2023-01-21T19:46:41.711Z,13.93
2023-01-21T19:49:15.392Z,15.73
2023-01-21T19:51:44.260Z,16.25
2023-01-21T19:54:13.468Z,14.63
2023-01-21T19:56:41.361Z,14.82
2023-01-21T19:59:13.131Z,16.50
2023-01-21T20:01:41.392Z,17.00
2023-01-21T20:04:09.991Z,18.00
2023-01-21T20:06:40.420Z,17.35
2023-01-21T20:09:10.119Z,16.63
2023-01-21T20:11:39.800Z,16.75
2023-01-21T20:14:07.768Z,14.98
2023-01-21T20:16:37.449Z,18.13
2023-01-21T20:19:07.166Z,17.38
2023-01-21T20:21:38.008Z,19.73
2023-01-21T20:26:37.802Z,14.15
2023-01-21T20:29:11.917Z,16.80
2023-01-21T20:31:41.626Z,18.00
2023-01-21T20:34:09.767Z,19.63
2023-01-21T20:36:39.047Z,18.23
2023-01-21T20:39:08.360Z,20.20
2023-01-21T20:41:36.211Z,19.63
2023-01-21T20:44:04.388Z,19.90
2023-01-21T20:46:34.844Z,21.85
2023-01-21T20:49:02.840Z,22.20
2023-01-21T20:51:30.678Z,22.27
2023-01-21T20:53:58.479Z,23.80
2023-01-21T20:56:28.857Z,20.40
2023-01-21T20:58:56.681Z,20.23
2023-01-21T21:01:26.139Z,20.52
2023-01-21T21:03:55.353Z,20.50
2023-01-21T21:06:26.033Z,21.90
2023-01-21T21:08:53.963Z,24.60
2023-01-21T21:11:21.895Z,20.77
2023-01-21T21:13:52.215Z,20.58
2023-01-21T21:16:22.928Z,21.30
2023-01-21T21:18:51.470Z,22.40
2023-01-21T21:21:23.566Z,17.77
2023-01-21T21:23:52.416Z,24.85
2023-01-21T21:26:23.032Z,19.73
2023-01-21T21:28:54.484Z,20.52
2023-01-21T21:31:23.028Z,22.17
2023-01-21T21:33:51.071Z,24.73
2023-01-21T21:36:23.094Z,21.15
2023-01-21T21:38:52.093Z,22.23
2023-01-21T21:41:38.798Z,24.27
2023-01-21T21:44:07.816Z,21.15
2023-01-21T21:46:53.176Z,25.17
2023-01-21T21:49:21.024Z,22.25
2023-01-21T21:51:50.190Z,21.83
2023-01-21T21:54:18.762Z,23.90
2023-01-21T21:56:46.955Z,23.63
2023-01-21T21:59:15.350Z,21.95
2023-01-21T22:01:44.101Z,24.02
2023-01-21T22:04:12.449Z,22.23
2023-01-21T22:06:40.480Z,19.77
2023-01-21T22:09:10.652Z,24.67
2023-01-21T22:11:38.663Z,20.38
2023-01-21T22:14:06.502Z,22.27
2023-01-21T22:16:34.808Z,21.27
2023-01-21T22:19:02.852Z,21.90
2023-01-21T22:21:33.280Z,23.70
2023-01-21T22:24:01.848Z,20.63
2023-01-21T22:26:32.364Z,22.02
2023-01-21T22:29:00.196Z,20.35
2023-01-21T22:31:30.209Z,24.20
2023-01-21T22:33:59.759Z,22.77
2023-01-21T22:36:30.444Z,22.25
2023-01-21T22:38:58.991Z,21.10
2023-01-21T22:41:27.640Z,21.42
2023-01-21T22:43:56.977Z,18.95
2023-01-21T22:46:27.122Z,20.67
2023-01-21T22:48:55.328Z,20.75
2023-01-21T22:51:23.885Z,23.60
2023-01-21T22:53:53.064Z,22.38
2023-01-21T22:56:31.452Z,22.27
2023-01-21T22:59:10.063Z,19.77
2023-01-21T23:01:38.100Z,18.75
2023-01-21T23:04:06.170Z,20.90
2023-01-21T23:06:35.163Z,22.08
2023-01-21T23:09:05.060Z,22.55
2023-01-21T23:11:34.588Z,19.02
2023-01-21T23:14:02.407Z,19.73
2023-01-21T23:16:31.614Z,19.85
2023-01-21T23:18:59.572Z,19.55
2023-01-21T23:21:27.347Z,19.75
2023-01-21T23:23:55.121Z,23.15
2023-01-21T23:26:23.699Z,19.98
2023-01-21T23:28:55.965Z,21.52
2023-01-21T23:31:25.338Z,21.75
2023-01-21T23:33:56.164Z,22.35
2023-01-21T23:36:24.299Z,20.50
2023-01-21T23:38:52.108Z,19.98
2023-01-21T23:41:21.105Z,19.88
2023-01-21T23:43:48.944Z,18.77
2023-01-21T23:46:19.566Z,18.77
2023-01-21T23:48:47.725Z,17.88
2023-01-21T23:51:18.357Z,19.50
2023-01-21T23:53:47.673Z,22.98
2023-01-21T23:56:17.481Z,22.50
2023-01-21T23:58:45.265Z,19.88
